Time;durP1;ratioP1;P1;durP2;ratioP2;P2;SDS_P1;SDS_P2;PMS_P1;PMS_P2;Temp;Humidity;BMP_temperature;BMP_pressure;BME280_temperature;BME280_humidity;BME280_pressure;Samples;Min_cycle;Max_cycle;Signal;HPM_P1;HPM_P2
2021/07/21 00:00:09;;;;;;;28.92;19.85;;;;;;;-145.83;100.00;58908.13;3479079;28;20132;-44
2021/07/21 00:01:51;;;;;;;28.17;19.45;;;;;;;-145.83;100.00;58908.13;3483761;28;20080;-44
2021/07/21 00:03:33;;;;;;;30.48;21.05;;;;;;;-145.83;100.00;58908.13;3472457;28;20148;-44
2021/07/21 00:05:16;;;;;;;32.38;20.70;;;;;;;-145.83;100.00;58908.13;3470587;28;20083;-44
2021/07/21 00:06:58;;;;;;;29.45;20.42;;;;;;;-145.83;100.00;58908.13;3483118;28;20088;-44
2021/07/21 00:08:39;;;;;;;37.42;21.83;;;;;;;-145.83;100.00;58908.13;3479045;28;20294;-44
2021/07/21 00:10:22;;;;;;;31.40;19.52;;;;;;;-145.83;100.00;58908.13;3483605;28;20559;-44
2021/07/21 00:14:13;;;;;;;28.95;20.77;;;;;;;-145.83;100.00;58908.13;3470863;28;20539;-44
2021/07/21 00:16:07;;;;;;;30.35;20.88;;;;;;;-145.83;100.00;58908.13;3481765;28;20147;-44
2021/07/21 00:17:58;;;;;;;30.70;19.85;;;;;;;-145.83;100.00;58908.13;3479100;28;20045;-45
2021/07/21 00:21:39;;;;;;;29.13;20.63;;;;;;;-145.83;100.00;58908.13;3480228;28;20076;-44
2021/07/21 00:23:20;;;;;;;31.95;22.25;;;;;;;-145.83;100.00;58908.13;3480971;28;20076;-44
2021/07/21 00:25:02;;;;;;;33.53;21.10;;;;;;;-145.83;100.00;58908.13;3469698;28;20077;-44
2021/07/21 00:26:43;;;;;;;28.90;20.23;;;;;;;-145.83;100.00;58908.13;3474574;28;20126;-44
2021/07/21 00:28:25;;;;;;;26.80;19.40;;;;;;;-145.83;100.00;58908.13;3483466;28;20110;-44
2021/07/21 00:30:08;;;;;;;33.15;21.75;;;;;;;-145.83;100.00;58908.13;3478799;28;20134;-45
2021/07/21 00:31:50;;;;;;;25.83;18.90;;;;;;;-145.83;100.00;58908.13;3481589;28;20049;-43
2021/07/21 00:33:31;;;;;;;30.95;20.88;;;;;;;-145.83;100.00;58908.13;3480559;28;20060;-44
2021/07/21 00:35:15;;;;;;;30.38;20.48;;;;;;;-145.83;100.00;58908.13;3478829;28;20052;-44
2021/07/21 00:36:57;;;;;;;28.75;20.02;;;;;;;-145.83;100.00;58908.13;3482943;28;20138;-44
2021/07/21 00:38:38;;;;;;;29.42;19.23;;;;;;;-145.83;100.00;58908.13;3478787;28;20079;-43
2021/07/21 00:40:19;;;;;;;33.63;20.52;;;;;;;-145.83;100.00;58908.13;3483149;28;20080;-44
2021/07/21 00:42:01;;;;;;;31.73;20.77;;;;;;;-145.83;100.00;58908.13;3472434;28;20081;-44
2021/07/21 00:43:43;;;;;;;26.02;20.17;;;;;;;-145.83;100.00;58908.13;3470033;28;20454;-45
2021/07/21 00:45:24;;;;;;;29.15;20.02;;;;;;;-145.83;100.00;58908.13;3470638;28;20526;-44
2021/07/21 00:47:06;;;;;;;28.27;19.33;;;;;;;-145.83;100.00;58908.13;3471111;28;20076;-44
2021/07/21 00:48:47;;;;;;;34.00;20.45;;;;;;;-145.83;100.00;58908.13;3483301;28;20076;-44
2021/07/21 00:50:29;;;;;;;28.83;19.88;;;;;;;-145.83;100.00;58908.13;3475875;28;20064;-44
2021/07/21 00:52:10;;;;;;;30.50;21.10;;;;;;;-145.83;100.00;58908.13;3467857;28;20538;-44
2021/07/21 00:53:52;;;;;;;27.95;21.27;;;;;;;-145.83;100.00;58908.13;3477854;28;20049;-44
2021/07/21 00:55:35;;;;;;;30.42;20.75;;;;;;;-145.83;100.00;58908.13;3481124;28;20092;-44
2021/07/21 00:57:17;;;;;;;31.42;22.02;;;;;;;-145.83;100.00;58908.13;3471417;28;20135;-44
2021/07/21 00:58:59;;;;;;;34.03;22.33;;;;;;;-145.83;100.00;58908.13;3471541;28;20502;-44
2021/07/21 01:00:40;;;;;;;39.45;23.25;;;;;;;-145.83;100.00;58908.13;3469209;28;20057;-44
2021/07/21 01:02:21;;;;;;;30.67;21.23;;;;;;;-145.83;100.00;58908.13;3474459;28;20053;-43
2021/07/21 01:04:03;;;;;;;35.10;22.25;;;;;;;-145.83;100.00;58908.13;3482758;28;20049;-44
2021/07/21 01:05:45;;;;;;;34.20;22.17;;;;;;;-145.83;100.00;58908.13;3478490;28;20115;-43
2021/07/21 01:07:26;;;;;;;37.78;23.90;;;;;;;-145.83;100.00;58908.13;3480922;28;20479;-44
2021/07/21 01:09:08;;;;;;;34.15;23.73;;;;;;;-145.83;100.00;58908.13;3480300;28;20080;-44
2021/07/21 01:10:56;;;;;;;41.80;25.90;;;;;;;-145.83;100.00;58908.13;3478684;28;20076;-44
2021/07/21 01:12:39;;;;;;;42.47;26.33;;;;;;;-145.83;100.00;58908.13;3482774;28;20087;-44
2021/07/21 01:14:28;;;;;;;43.22;27.02;;;;;;;-145.83;100.00;58908.13;3475640;28;20123;-44
2021/07/21 01:16:15;;;;;;;50.35;27.20;;;;;;;-145.83;100.00;58908.13;3469343;28;20084;-45
2021/07/21 01:18:02;;;;;;;39.97;25.50;;;;;;;-145.83;100.00;58908.13;3479260;28;20049;-45
2021/07/21 01:20:12;;;;;;;39.83;25.08;;;;;;;-145.83;100.00;58908.13;3479161;28;20076;-44
2021/07/21 01:22:14;;;;;;;37.03;24.30;;;;;;;-145.83;100.00;58908.13;3469025;28;20135;-44
2021/07/21 01:24:18;;;;;;;39.58;24.88;;;;;;;-145.83;100.00;58908.13;3470691;28;20073;-44
2021/07/21 01:26:06;;;;;;;34.50;23.65;;;;;;;-145.83;100.00;58908.13;3471878;28;20083;-44
2021/07/21 01:27:52;;;;;;;34.70;23.52;;;;;;;-145.83;100.00;58908.13;3482655;28;20485;-44
2021/07/21 01:29:35;;;;;;;32.83;22.33;;;;;;;-145.83;100.00;58908.13;3480648;28;20045;-43
2021/07/21 01:31:20;;;;;;;36.35;22.77;;;;;;;-145.83;100.00;58908.13;3480815;28;20056;-44
2021/07/21 01:33:05;;;;;;;35.20;22.95;;;;;;;-145.83;100.00;58908.13;3470140;28;20041;-44
2021/07/21 01:34:52;;;;;;;37.75;24.17;;;;;;;-145.83;100.00;58908.13;3474367;28;20601;-45
2021/07/21 01:36:38;;;;;;;36.50;24.20;;;;;;;-145.83;100.00;58908.13;3483014;28;20076;-44
2021/07/21 01:38:24;;;;;;;34.75;22.65;;;;;;;-145.83;100.00;58908.13;3472574;28;20072;-45
2021/07/21 01:40:12;;;;;;;34.25;22.33;;;;;;;-145.83;100.00;58908.13;3469956;28;20517;-44
2021/07/21 01:41:58;;;;;;;39.20;24.52;;;;;;;-145.83;100.00;58908.13;3470344;28;20091;-44
2021/07/21 01:43:43;;;;;;;35.20;22.42;;;;;;;-145.83;100.00;58908.13;3472252;28;20049;-44
2021/07/21 01:45:26;;;;;;;33.53;23.00;;;;;;;-145.83;100.00;58908.13;3468627;28;20095;-45
2021/07/21 01:47:09;;;;;;;41.53;25.08;;;;;;;-145.83;100.00;58908.13;3469949;28;20155;-45
2021/07/21 01:48:53;;;;;;;41.42;26.33;;;;;;;-145.83;100.00;58908.13;3469495;28;20053;-44
2021/07/21 01:50:36;;;;;;;41.28;25.20;;;;;;;-145.83;100.00;58908.13;3470334;28;20095;-44
2021/07/21 01:52:24;;;;;;;45.88;26.80;;;;;;;-145.83;100.00;58908.13;3469120;28;20110;-44
2021/07/21 01:54:09;;;;;;;37.10;24.15;;;;;;;-145.83;100.00;58908.13;3482162;28;20171;-45
2021/07/21 01:55:51;;;;;;;37.72;24.75;;;;;;;-145.83;100.00;58908.13;3480246;28;20045;-44
2021/07/21 01:57:33;;;;;;;43.45;26.98;;;;;;;-145.83;100.00;58908.13;3482190;28;20143;-45
2021/07/21 01:59:16;;;;;;;39.70;25.77;;;;;;;-145.83;100.00;58908.13;3476993;28;20110;-45
2021/07/21 02:00:58;;;;;;;41.92;26.80;;;;;;;-145.83;100.00;58908.13;3480492;28;20139;-44
2021/07/21 02:02:43;;;;;;;40.72;25.90;;;;;;;-145.83;100.00;58908.13;3479912;28;20475;-44
2021/07/21 02:04:25;;;;;;;37.67;26.55;;;;;;;-145.83;100.00;58908.13;3477960;28;20057;-44
2021/07/21 02:06:09;;;;;;;40.38;26.77;;;;;;;-145.83;100.00;58908.13;3482306;28;20053;-44
2021/07/21 02:07:51;;;;;;;;;;;;;;;-145.83;100.00;58908.13;3478367;28;20182;-44
2021/07/21 02:09:32;;;;;;;38.05;22.98;;;;;;;-145.83;100.00;58908.13;3481842;28;19980;-45
2021/07/21 02:11:14;;;;;;;38.33;25.05;;;;;;;-145.83;100.00;58908.13;3478085;28;20152;-44
2021/07/21 02:12:59;;;;;;;35.30;23.73;;;;;;;-145.83;100.00;58908.13;3479344;28;20536;-44
2021/07/21 02:14:42;;;;;;;33.50;21.60;;;;;;;-145.83;100.00;58908.13;3481377;28;20145;-44
2021/07/21 02:16:24;;;;;;;35.88;23.38;;;;;;;-145.83;100.00;58908.13;3477591;28;20068;-44
2021/07/21 02:18:07;;;;;;;37.67;21.30;;;;;;;-145.83;100.00;58908.13;3468357;28;20046;-43
2021/07/21 02:19:49;;;;;;;36.42;23.67;;;;;;;-145.83;100.00;58908.13;3476263;28;20079;-44
2021/07/21 02:21:32;;;;;;;36.05;24.83;;;;;;;-145.83;100.00;58908.13;3481277;28;20084;-45
2021/07/21 02:23:14;;;;;;;35.97;23.00;;;;;;;-145.83;100.00;58908.13;3479066;28;20087;-44
2021/07/21 02:24:56;;;;;;;34.17;23.05;;;;;;;-145.83;100.00;58908.13;3477788;28;20522;-44
2021/07/21 02:26:39;;;;;;;34.90;23.10;;;;;;;-145.83;100.00;58908.13;3470023;28;20100;-44
2021/07/21 02:28:21;;;;;;;35.88;22.83;;;;;;;-145.83;100.00;58908.13;3477506;28;20521;-44
2021/07/21 02:30:07;;;;;;;31.30;21.75;;;;;;;-145.83;100.00;58908.13;3470949;28;20084;-44
2021/07/21 02:31:58;;;;;;;35.15;21.77;;;;;;;-145.83;100.00;58908.13;3479770;28;20754;-45
2021/07/21 02:33:46;;;;;;;31.50;22.67;;;;;;;-145.83;100.00;58908.13;3481918;28;20213;-44
2021/07/21 02:35:27;;;;;;;33.67;22.23;;;;;;;-145.83;100.00;58908.13;3483694;28;20056;-45
2021/07/21 02:37:12;;;;;;;37.72;22.40;;;;;;;-145.83;100.00;58908.13;3479819;28;20041;-43
2021/07/21 02:38:54;;;;;;;28.55;20.33;;;;;;;-145.83;100.00;58908.13;3484399;28;20537;-44
2021/07/21 02:40:36;;;;;;;32.47;21.42;;;;;;;-145.83;100.00;58908.13;3474444;28;20514;-44
2021/07/21 02:42:19;;;;;;;29.08;20.88;;;;;;;-145.83;100.00;58908.13;3471756;28;20080;-44
2021/07/21 02:44:00;;;;;;;34.15;20.92;;;;;;;-145.83;100.00;58908.13;3472075;28;20053;-45
2021/07/21 02:45:42;;;;;;;30.48;20.20;;;;;;;-145.83;100.00;58908.13;3474304;28;20130;-44
2021/07/21 02:47:25;;;;;;;28.20;19.52;;;;;;;-145.83;100.00;58908.13;3471412;28;20077;-44
2021/07/21 02:49:07;;;;;;;28.98;19.42;;;;;;;-145.83;100.00;58908.13;3475449;28;20502;-44
2021/07/21 02:50:56;;;;;;;29.92;20.35;;;;;;;-145.83;100.00;58908.13;3484335;28;20537;-44
2021/07/21 02:52:42;;;;;;;28.85;19.40;;;;;;;-145.83;100.00;58908.13;3474675;28;20068;-44
2021/07/21 02:54:31;;;;;;;31.00;20.42;;;;;;;-145.83;100.00;58908.13;3472287;28;20083;-46
2021/07/21 02:56:14;;;;;;;27.00;19.25;;;;;;;-145.83;100.00;58908.13;3471381;28;20537;-44
2021/07/21 02:57:59;;;;;;;27.17;18.73;;;;;;;-145.83;100.00;58908.13;3476721;28;20152;-44
2021/07/21 02:59:45;;;;;;;29.85;19.70;;;;;;;-145.83;100.00;58908.13;3484250;28;20049;-45
2021/07/21 03:01:28;;;;;;;29.95;18.70;;;;;;;-145.83;100.00;58908.13;3473754;28;20168;-45
2021/07/21 03:03:10;;;;;;;;;;;;;;;-145.83;100.00;58908.13;3471760;28;20055;-44
2021/07/21 03:04:55;;;;;;;25.95;18.25;;;;;;;-145.83;100.00;58908.13;3471535;28;20019;-44
2021/07/21 03:06:38;;;;;;;28.95;19.10;;;;;;;-145.83;100.00;58908.13;3474141;28;20048;-45
2021/07/21 03:08:22;;;;;;;27.30;19.08;;;;;;;-145.83;100.00;58908.13;3470239;28;20533;-44
2021/07/21 03:10:05;;;;;;;28.10;18.67;;;;;;;-145.83;100.00;58908.13;3476562;28;20143;-44
2021/07/21 03:11:51;;;;;;;26.60;17.90;;;;;;;-145.83;100.00;58908.13;3483767;28;20053;-44
2021/07/21 03:13:38;;;;;;;33.05;20.02;;;;;;;-145.83;100.00;58908.13;3472119;28;20077;-45
2021/07/21 03:15:20;;;;;;;32.00;20.33;;;;;;;-145.83;100.00;58908.13;3471914;28;20377;-45
2021/07/21 03:17:03;;;;;;;26.70;18.58;;;;;;;-145.83;100.00;58908.13;3483590;28;20056;-45
2021/07/21 03:18:47;;;;;;;28.83;19.45;;;;;;;-145.83;100.00;58908.13;3477716;28;20053;-45
2021/07/21 03:20:29;;;;;;;28.05;18.77;;;;;;;-145.83;100.00;58908.13;3470254;28;20097;-45
2021/07/21 03:22:12;;;;;;;32.72;20.13;;;;;;;-145.83;100.00;58908.13;3478717;28;20049;-44
2021/07/21 03:23:54;;;;;;;28.60;19.17;;;;;;;-145.83;100.00;58908.13;3480852;28;20391;-45
2021/07/21 03:25:37;;;;;;;28.90;19.38;;;;;;;-145.83;100.00;58908.13;3481371;28;20072;-44
2021/07/21 03:27:19;;;;;;;;;;;;;;;-145.83;100.00;58908.13;3479778;28;20510;-44
2021/07/21 03:29:01;;;;;;;32.38;18.52;;;;;;;-145.83;100.00;58908.13;3483945;28;19963;-44
2021/07/21 03:30:43;;;;;;;26.55;19.10;;;;;;;-145.83;100.00;58908.13;3478585;28;20095;-44
2021/07/21 03:32:27;;;;;;;30.13;19.02;;;;;;;-145.83;100.00;58908.13;3483698;28;20095;-45
2021/07/21 03:34:11;;;;;;;30.05;19.05;;;;;;;-145.83;100.00;58908.13;3479124;28;20059;-45
2021/07/21 03:35:53;;;;;;;27.73;18.27;;;;;;;-145.83;100.00;58908.13;3481874;28;20621;-44
2021/07/21 03:37:35;;;;;;;27.08;18.42;;;;;;;-145.83;100.00;58908.13;3470917;28;20136;-45
2021/07/21 03:39:18;;;;;;;26.23;17.98;;;;;;;-145.83;100.00;58908.13;3471643;28;20053;-45
2021/07/21 03:41:00;;;;;;;28.35;18.30;;;;;;;-145.83;100.00;58908.13;3469797;28;20045;-45
2021/07/21 03:42:41;;;;;;;24.98;17.70;;;;;;;-145.83;100.00;58908.13;3475226;28;20088;-46
2021/07/21 03:44:24;;;;;;;26.83;16.95;;;;;;;-145.83;100.00;58908.13;3483579;28;20049;-44
2021/07/21 03:46:06;;;;;;;23.52;16.08;;;;;;;-145.83;100.00;58908.13;3473275;28;20096;-45
2021/07/21 03:47:49;;;;;;;23.30;16.10;;;;;;;-145.83;100.00;58908.13;3471871;28;20045;-45
2021/07/21 03:49:31;;;;;;;29.33;17.77;;;;;;;-145.83;100.00;58908.13;3481913;28;20083;-44
2021/07/21 03:51:13;;;;;;;24.95;17.77;;;;;;;-145.83;100.00;58908.13;3477804;28;20483;-46
2021/07/21 03:52:55;;;;;;;26.75;17.38;;;;;;;-145.83;100.00;58908.13;3475969;28;20549;-46
2021/07/21 03:54:37;;;;;;;25.15;15.65;;;;;;;-145.83;100.00;58908.13;3476479;28;20080;-44
2021/07/21 03:56:19;;;;;;;25.45;16.83;;;;;;;-145.83;100.00;58908.13;3483126;28;20581;-43
2021/07/21 03:58:01;;;;;;;24.83;16.88;;;;;;;-145.83;100.00;58908.13;3472715;28;20140;-44
2021/07/21 03:59:42;;;;;;;24.30;16.27;;;;;;;-145.83;100.00;58908.13;3472336;28;20092;-44
2021/07/21 04:01:25;;;;;;;23.58;16.05;;;;;;;-145.83;100.00;58908.13;3483228;28;20080;-44
2021/07/21 04:03:08;;;;;;;27.20;17.33;;;;;;;-145.83;100.00;58908.13;3479159;28;20140;-44
2021/07/21 04:04:50;;;;;;;25.77;16.90;;;;;;;-145.83;100.00;58908.13;3470029;28;20045;-42
2021/07/21 04:06:33;;;;;;;28.67;18.10;;;;;;;-145.83;100.00;58908.13;3477093;28;20049;-42
2021/07/21 04:08:15;;;;;;;31.40;18.43;;;;;;;-145.83;100.00;58908.13;3483054;28;20072;-43
2021/07/21 04:09:57;;;;;;;25.20;16.88;;;;;;;-145.83;100.00;58908.13;3471279;28;20080;-45
2021/07/21 04:11:40;;;;;;;24.08;17.15;;;;;;;-145.83;100.00;58908.13;3471450;28;20123;-43
2021/07/21 04:13:23;;;;;;;25.85;18.17;;;;;;;-145.83;100.00;58908.13;3482713;28;20053;-45
2021/07/21 04:15:05;;;;;;;26.10;17.45;;;;;;;-145.83;100.00;58908.13;3477067;28;20089;-44
2021/07/21 04:16:49;;;;;;;25.17;17.35;;;;;;;-145.83;100.00;58908.13;3469767;28;20080;-44
2021/07/21 04:18:31;;;;;;;25.10;16.98;;;;;;;-145.83;100.00;58908.13;3479776;28;20485;-44
2021/07/21 04:20:14;;;;;;;31.63;18.60;;;;;;;-145.83;100.00;58908.13;3480896;28;20107;-44
2021/07/21 04:21:56;;;;;;;23.75;16.98;;;;;;;-145.83;100.00;58908.13;3472240;28;20530;-45
2021/07/21 04:23:39;;;;;;;27.58;17.70;;;;;;;-145.83;100.00;58908.13;3471096;28;20051;-44
2021/07/21 04:25:21;;;;;;;;;;;;;;;-145.83;100.00;58908.13;3482991;28;20136;-45
2021/07/21 04:27:04;;;;;;;25.45;17.48;;;;;;;-145.83;100.00;58908.13;3477470;28;19925;-44
2021/07/21 04:28:46;;;;;;;27.95;18.05;;;;;;;-145.83;100.00;58908.13;3469615;28;20061;-44
2021/07/21 04:30:29;;;;;;;26.67;17.45;;;;;;;-145.83;100.00;58908.13;3478045;28;20041;-44
2021/07/21 04:32:12;;;;;;;28.42;17.13;;;;;;;-145.83;100.00;58908.13;3481321;28;20504;-44
2021/07/21 04:33:55;;;;;;;27.85;18.05;;;;;;;-145.83;100.00;58908.13;3469659;28;20058;-44
2021/07/21 04:35:37;;;;;;;27.02;17.98;;;;;;;-145.83;100.00;58908.13;3472520;28;20056;-44
2021/07/21 04:37:21;;;;;;;28.92;18.02;;;;;;;-145.83;100.00;58908.13;3469306;28;20518;-44
2021/07/21 04:39:03;;;;;;;26.10;17.20;;;;;;;-145.83;100.00;58908.13;3477860;28;20079;-44
2021/07/21 04:40:47;;;;;;;29.10;17.58;;;;;;;-145.83;100.00;58908.13;3481914;28;20073;-44
2021/07/21 04:42:28;;;;;;;25.05;17.50;;;;;;;-145.83;100.00;58908.13;3479702;28;20099;-45
2021/07/21 04:44:11;;;;;;;28.88;17.65;;;;;;;-145.83;100.00;58908.13;3478851;28;20052;-45
2021/07/21 04:45:54;;;;;;;25.23;16.90;;;;;;;-145.83;100.00;58908.13;3482967;28;20148;-45
2021/07/21 04:47:36;;;;;;;25.50;18.17;;;;;;;-145.83;100.00;58908.13;3476801;28;20337;-45
2021/07/21 04:49:20;;;;;;;25.77;18.17;;;;;;;-145.83;100.00;58908.13;3469485;28;20287;-45
2021/07/21 04:51:02;;;;;;;26.65;17.05;;;;;;;-145.83;100.00;58908.13;3472655;28;20073;-45
2021/07/21 04:52:44;;;;;;;26.42;16.52;;;;;;;-145.83;100.00;58908.13;3469185;28;20561;-45
2021/07/21 04:54:28;;;;;;;26.92;17.10;;;;;;;-145.83;100.00;58908.13;3469731;28;20628;-45
2021/07/21 04:56:09;;;;;;;27.35;18.55;;;;;;;-145.83;100.00;58908.13;3472729;28;20106;-45
2021/07/21 04:57:51;;;;;;;26.10;16.95;;;;;;;-145.83;100.00;58908.13;3469139;28;20084;-47
2021/07/21 04:59:32;;;;;;;26.70;16.38;;;;;;;-145.83;100.00;58908.13;3472858;28;20072;-46
2021/07/21 05:01:13;;;;;;;24.55;16.75;;;;;;;-145.83;100.00;58908.13;3469098;28;20081;-45
2021/07/21 05:02:57;;;;;;;27.15;17.70;;;;;;;-145.83;100.00;58908.13;3471389;28;20503;-45
2021/07/21 05:04:39;;;;;;;27.02;18.35;;;;;;;-145.83;100.00;58908.13;3470867;28;20498;-45
2021/07/21 05:06:21;;;;;;;26.90;17.15;;;;;;;-145.83;100.00;58908.13;3469803;28;20455;-45
2021/07/21 05:08:02;;;;;;;26.83;17.58;;;;;;;-145.83;100.00;58908.13;3470424;28;20068;-45
2021/07/21 05:09:44;;;;;;;26.08;16.55;;;;;;;-145.83;100.00;58908.13;3482850;28;20168;-44
2021/07/21 05:11:26;;;;;;;25.00;16.33;;;;;;;-145.83;100.00;58908.13;3478307;28;20049;-46
2021/07/21 05:13:07;;;;;;;26.42;16.58;;;;;;;-145.83;100.00;58908.13;3482267;28;20087;-45
2021/07/21 05:14:48;;;;;;;23.85;15.95;;;;;;;-145.83;100.00;58908.13;3472331;28;20509;-45
2021/07/21 05:16:30;;;;;;;25.38;16.33;;;;;;;-145.83;100.00;58908.13;3476925;28;20262;-45
2021/07/21 05:18:12;;;;;;;22.75;15.00;;;;;;;-145.83;100.00;58908.13;3469612;28;20506;-45
2021/07/21 05:19:54;;;;;;;24.08;15.10;;;;;;;-145.83;100.00;58908.13;3470219;28;20056;-45
2021/07/21 05:21:35;;;;;;;21.35;14.57;;;;;;;-145.83;100.00;58908.13;3482658;28;20513;-44
2021/07/21 05:23:16;;;;;;;24.80;14.77;;;;;;;-145.83;100.00;58908.13;3474827;28;20075;-46
2021/07/21 05:24:58;;;;;;;23.05;14.70;;;;;;;-145.83;100.00;58908.13;3468918;28;20057;-44
2021/07/21 05:26:41;;;;;;;21.98;14.18;;;;;;;-145.83;100.00;58908.13;3471121;28;20042;-47
2021/07/21 05:28:22;;;;;;;22.02;13.32;;;;;;;-145.83;100.00;58908.13;3470481;28;20072;-45
2021/07/21 05:30:05;;;;;;;20.58;13.82;;;;;;;-145.83;100.00;58908.13;3480509;28;20048;-45
2021/07/21 05:31:46;;;;;;;22.03;12.97;;;;;;;-145.83;100.00;58908.13;3478219;28;20080;-45
2021/07/21 05:33:28;;;;;;;21.08;13.23;;;;;;;-145.83;100.00;58908.13;3482288;28;20286;-45
2021/07/21 05:35:11;;;;;;;19.83;12.10;;;;;;;-145.83;100.00;58908.13;3474406;28;20080;-45
2021/07/21 05:36:52;;;;;;;19.75;12.77;;;;;;;-145.83;100.00;58908.13;3468761;28;20548;-44
2021/07/21 05:38:33;;;;;;;16.15;10.80;;;;;;;-145.83;100.00;58908.13;3478318;28;20122;-44
2021/07/21 05:40:15;;;;;;;17.15;10.95;;;;;;;-145.83;100.00;58908.13;3480406;28;20083;-44
2021/07/21 05:41:56;;;;;;;14.50;9.95;;;;;;;-145.83;100.00;58908.13;3480108;28;20422;-45
2021/07/21 05:43:38;;;;;;;18.52;11.25;;;;;;;-145.83;100.00;58908.13;3477890;28;20462;-44
2021/07/21 05:45:19;;;;;;;16.35;10.60;;;;;;;-145.83;100.00;58908.13;3482336;28;20072;-45
2021/07/21 05:47:01;;;;;;;16.30;10.15;;;;;;;-145.83;100.00;58908.13;3475361;28;20045;-45
2021/07/21 05:48:42;;;;;;;16.17;10.27;;;;;;;-145.83;100.00;58908.13;3468600;28;20053;-44
2021/07/21 05:50:24;;;;;;;14.32;9.85;;;;;;;-145.83;100.00;58908.13;3477309;28;20135;-45
2021/07/21 05:52:06;;;;;;;13.68;9.20;;;;;;;-145.83;100.00;58908.13;3480372;28;20549;-44
2021/07/21 05:53:48;;;;;;;13.90;9.48;;;;;;;-145.83;100.00;58908.13;3467978;28;20498;-44
2021/07/21 05:55:29;;;;;;;15.75;8.23;;;;;;;-145.83;100.00;58908.13;3469879;28;20170;-45
2021/07/21 05:57:10;;;;;;;16.40;9.20;;;;;;;-145.83;100.00;58908.13;3482506;28;20132;-44
2021/07/21 05:58:52;;;;;;;14.95;9.07;;;;;;;-145.83;100.00;58908.13;3477834;28;20493;-43
2021/07/21 06:00:34;;;;;;;15.95;8.98;;;;;;;-145.83;100.00;58908.13;3482376;28;20118;-44
2021/07/21 06:02:15;;;;;;;17.02;9.20;;;;;;;-145.83;100.00;58908.13;3470643;28;20144;-44
2021/07/21 06:04:01;;;;;;;14.50;8.10;;;;;;;-145.83;100.00;58908.13;3470058;28;20460;-44
2021/07/21 06:05:43;;;;;;;19.45;8.90;;;;;;;-145.83;100.00;58908.13;3469541;28;20068;-44
2021/07/21 06:07:25;;;;;;;12.50;8.48;;;;;;;-145.83;100.00;58908.13;3471368;28;20482;-43
2021/07/21 06:09:06;;;;;;;12.30;8.57;;;;;;;-145.83;100.00;58908.13;3482072;28;20079;-43
2021/07/21 06:10:48;;;;;;;13.18;8.90;;;;;;;-145.83;100.00;58908.13;3475041;28;20132;-45
2021/07/21 06:12:29;;;;;;;15.77;8.30;;;;;;;-145.83;100.00;58908.13;3475729;28;20088;-43
2021/07/21 06:14:10;;;;;;;13.73;8.68;;;;;;;-145.83;100.00;58908.13;3471596;28;20481;-43
2021/07/21 06:15:52;;;;;;;12.98;7.97;;;;;;;-145.83;100.00;58908.13;3470138;28;20427;-43
2021/07/21 06:17:35;;;;;;;12.52;7.00;;;;;;;-145.83;100.00;58908.13;3479985;28;20426;-43
2021/07/21 06:19:16;;;;;;;14.75;7.63;;;;;;;-145.83;100.00;58908.13;3477896;28;20061;-45
2021/07/21 06:20:58;;;;;;;14.77;8.27;;;;;;;-145.83;100.00;58908.13;3482056;28;20088;-43
2021/07/21 06:22:40;;;;;;;12.63;7.90;;;;;;;-145.83;100.00;58908.13;3472174;28;20148;-44
2021/07/21 06:24:21;;;;;;;15.77;7.70;;;;;;;-145.83;100.00;58908.13;3468088;28;20503;-43
2021/07/21 06:26:02;;;;;;;12.38;7.30;;;;;;;-145.83;100.00;58908.13;3479278;28;20513;-43
2021/07/21 06:27:43;;;;;;;14.30;7.82;;;;;;;-145.83;100.00;58908.13;3478660;28;20073;-43
2021/07/21 06:29:25;;;;;;;12.43;8.00;;;;;;;-145.83;100.00;58908.13;3479800;28;20475;-44
2021/07/21 06:31:06;;;;;;;10.93;7.13;;;;;;;-145.83;100.00;58908.13;3477427;28;20049;-44
2021/07/21 06:32:48;;;;;;;11.88;7.70;;;;;;;-145.83;100.00;58908.13;3482113;28;20122;-45
2021/07/21 06:34:29;;;;;;;13.50;7.28;;;;;;;-145.83;100.00;58908.13;3474810;28;20442;-44
2021/07/21 06:36:12;;;;;;;10.75;6.93;;;;;;;-145.83;100.00;58908.13;3468100;28;20060;-43
2021/07/21 06:37:53;;;;;;;14.73;7.68;;;;;;;-145.83;100.00;58908.13;3477711;28;20081;-44
2021/07/21 06:39:34;;;;;;;12.75;7.60;;;;;;;-145.83;100.00;58908.13;3480062;28;20597;-44
2021/07/21 06:41:16;;;;;;;11.00;7.28;;;;;;;-145.83;100.00;58908.13;3479662;28;20073;-44
2021/07/21 06:42:57;;;;;;;10.80;7.68;;;;;;;-145.83;100.00;58908.13;3478489;28;20076;-43
2021/07/21 06:44:38;;;;;;;13.18;8.15;;;;;;;-145.83;100.00;58908.13;3468236;28;20092;-45
2021/07/21 06:46:21;;;;;;;12.85;8.10;;;;;;;-145.83;100.00;58908.13;3471627;28;20049;-44
2021/07/21 06:48:02;;;;;;;10.93;7.28;;;;;;;-145.83;100.00;58908.13;3468206;28;20423;-45
2021/07/21 06:49:44;;;;;;;10.43;7.05;;;;;;;-145.83;100.00;58908.13;3476803;28;20139;-43
2021/07/21 06:51:26;;;;;;;11.50;7.18;;;;;;;-145.83;100.00;58908.13;3479828;28;20568;-44
2021/07/21 06:53:07;;;;;;;15.05;8.10;;;;;;;-145.83;100.00;58908.13;3472111;28;20077;-43
2021/07/21 06:54:49;;;;;;;13.05;7.75;;;;;;;-145.83;100.00;58908.13;3470559;28;20152;-44
2021/07/21 06:56:30;;;;;;;11.00;7.25;;;;;;;-145.83;100.00;58908.13;3481953;28;20150;-44
2021/07/21 06:58:12;;;;;;;12.93;7.68;;;;;;;-145.83;100.00;58908.13;3473611;28;20045;-43
2021/07/21 06:59:53;;;;;;;13.60;7.97;;;;;;;-145.83;100.00;58908.13;3468242;28;20053;-44
2021/07/21 07:01:34;;;;;;;15.38;8.45;;;;;;;-145.83;100.00;58908.13;3477727;28;20494;-44
2021/07/21 07:03:16;;;;;;;11.75;7.38;;;;;;;-145.83;100.00;58908.13;3480135;28;20049;-44
2021/07/21 07:04:58;;;;;;;12.75;7.50;;;;;;;-145.83;100.00;58908.13;3468742;28;20054;-43
2021/07/21 07:06:40;;;;;;;13.45;6.75;;;;;;;-145.83;100.00;58908.13;3470671;28;20045;-44
2021/07/21 07:08:21;;;;;;;12.45;7.05;;;;;;;-145.83;100.00;58908.13;3472546;28;20098;-44
2021/07/21 07:10:04;;;;;;;16.90;6.90;;;;;;;-145.83;100.00;58908.13;3474934;28;20506;-43
2021/07/21 07:11:45;;;;;;;10.48;7.30;;;;;;;-145.83;100.00;58908.13;3467986;28;20107;-44
2021/07/21 07:13:27;;;;;;;16.55;7.57;;;;;;;-145.83;100.00;58908.13;3470734;28;20053;-45
2021/07/21 07:15:09;;;;;;;10.23;6.70;;;;;;;-145.83;100.00;58908.13;3471569;28;20056;-45
2021/07/21 07:16:50;;;;;;;13.15;6.93;;;;;;;-145.83;100.00;58908.13;3483689;28;20060;-44
2021/07/21 07:18:32;;;;;;;14.85;7.18;;;;;;;-145.83;100.00;58908.13;3478198;28;20045;-44
2021/07/21 07:20:13;;;;;;;14.07;7.10;;;;;;;-145.83;100.00;58908.13;3470224;28;20104;-43
2021/07/21 07:21:55;;;;;;;9.35;6.72;;;;;;;-145.83;100.00;58908.13;3475862;28;20076;-45
2021/07/21 07:23:37;;;;;;;15.52;6.70;;;;;;;-145.83;100.00;58908.13;3483971;28;20056;-43
2021/07/21 07:25:18;;;;;;;10.80;6.35;;;;;;;-145.83;100.00;58908.13;3472265;28;20065;-44
2021/07/21 07:27:00;;;;;;;13.75;7.68;;;;;;;-145.83;100.00;58908.13;3471720;28;20072;-44
2021/07/21 07:28:42;;;;;;;14.82;7.93;;;;;;;-145.83;100.00;58908.13;3470865;28;20199;-43
2021/07/21 07:30:24;;;;;;;13.02;7.18;;;;;;;-145.83;100.00;58908.13;3472670;28;20461;-44
2021/07/21 07:32:06;;;;;;;11.40;6.60;;;;;;;-145.83;100.00;58908.13;3470148;28;20152;-44
2021/07/21 07:33:48;;;;;;;13.27;6.60;;;;;;;-145.83;100.00;58908.13;3476251;28;20084;-44
2021/07/21 07:35:29;;;;;;;12.93;7.68;;;;;;;-145.83;100.00;58908.13;3483721;28;20553;-44
2021/07/21 07:37:12;;;;;;;13.43;6.32;;;;;;;-145.83;100.00;58908.13;3472635;28;20049;-44
2021/07/21 07:38:53;;;;;;;19.25;7.65;;;;;;;-145.83;100.00;58908.13;3471763;28;20091;-44
2021/07/21 07:40:35;;;;;;;10.95;6.38;;;;;;;-145.83;100.00;58908.13;3483848;28;20061;-44
2021/07/21 07:42:19;;;;;;;13.60;6.43;;;;;;;-145.83;100.00;58908.13;3479164;28;20127;-44